Latest Weather Observations for Melbourne Airport

IDV60801

Issued at 3:02 pm EDT Thursday 23 March 2017 (issued every 30 minutes, with the page automatically refreshed every 10 minutes)

About weather observations | Map of weather stations | Latest weather observations for VIC | Other Formats
Station Details ID: 086282 Name: MELBOURNE AIRPORT Lat: -37.67 Lon: 144.83 Height: 113.4 m
Data from the previous 72 hours. | See also: Recent months at Melbourne Airport
Date/Time
EDT
Temp
°C
App
Temp
°C
Dew
Point
°C
Rel
Hum
%
Delta-T
°C
Wind Press
QNH
hPa
Press
MSL
hPa
Rain since
9am
mm
Dir  Spd
km/h
Gust
km/h
Spd
kts
Gust
kts
23/02:30pm 22.4 19.5 12.2 52 5.8 SSE 19 28 10 15 1019.1 1018.8 0.0
23/02:00pm 22.4 20.0 12.6 54 5.6 S 17 28 9 15 1019.4 1019.1 0.0
23/01:30pm 21.6 19.1 12.2 55 5.3 SSW 17 24 9 13 1019.7 1019.4 0.0
23/01:00pm 21.3 19.3 12.7 58 4.9 S 15 19 8 10 1020.0 1019.7 0.0
23/12:30pm 20.5 18.1 12.5 60 4.5 S 17 22 9 12 1020.3 1020.0 0.0
23/12:00pm 19.8 17.8 12.7 63 4.0 S 15 24 8 13 1020.6 1020.3 0.0
23/11:30am 19.6 18.4 12.9 65 3.8 ESE 11 17 6 9 1020.8 1020.5 0.0
23/11:00am 19.5 17.7 13.2 67 3.6 SSE 15 22 8 12 1020.9 1020.6 0.0
23/10:30am 18.1 16.2 12.9 71 2.9 SSE 15 19 8 10 1021.0 1020.7 0.0
23/10:00am 18.3 16.6 13.7 74 2.6 SE 15 19 8 10 1021.0 1020.7 0.0
23/09:30am 17.9 15.9 13.9 77 2.3 SE 17 24 9 13 1020.8 1020.5 0.0
23/09:13am 17.1 15.1 13.8 81 1.9 SSE 17 22 9 12 1020.7 1020.4 0.0
23/09:00am 17.0 14.7 14.0 82 1.7 SSE 19 26 10 14 1020.7 1020.4 0.2
23/08:30am 15.6 14.7 13.6 88 1.1 S 11 15 6 8 1020.4 1020.1 0.2
23/08:00am 14.7 14.0 13.3 91 0.8 S 9 9 5 5 1020.4 1020.1 0.2
23/07:30am 14.6 13.9 13.2 91 0.8 S 9 13 5 7 1020.0 1019.7 0.2
23/07:00am 14.9 13.9 13.3 90 0.9 S 11 15 6 8 1019.8 1019.5 0.2
23/06:30am 14.8 13.7 13.2 90 0.9 S 11 15 6 8 1019.7 1019.4 0.2
23/06:00am 14.5 13.4 13.1 91 0.8 S 11 15 6 8 1019.6 1019.3 0.2
23/05:30am 14.7 12.9 13.3 91 0.8 SSE 15 19 8 10 1019.4 1019.1 0.2
23/05:11am 15.0 13.2 13.2 89 1.0 S 15 19 8 10 1019.4 1019.1 0.2
23/05:00am 15.1 13.3 13.3 89 1.0 S 15 19 8 10 1019.3 1019.0 0.2
23/04:30am 15.2 13.7 13.2 88 1.1 SSW 13 15 7 8 1019.3 1019.0 0.2
23/04:00am 14.9 14.2 13.1 89 1.0 S 9 13 5 7 1019.2 1018.9 0.2
23/03:30am 14.3 13.4 12.5 89 1.0 S 9 13 5 7 1019.2 1018.9 0.2
23/03:00am 14.9 13.3 12.7 87 1.2 SSE 13 19 7 10 1019.3 1019.0 0.2
23/02:30am 15.3 12.6 13.0 86 1.3 SSE 19 24 10 13 1019.1 1018.8 0.2
23/02:00am 15.2 12.9 12.9 86 1.3 SSE 17 22 9 12 1019.4 1019.1 0.2
23/01:30am 15.5 12.6 13.0 85 1.4 SSE 20 26 11 14 1019.6 1019.3 0.2
23/01:00am 16.0 13.4 13.1 83 1.6 SE 19 26 10 14 1019.6 1019.3 0.2
23/12:30am 16.4 12.5 13.2 81 1.8 SSE 26 33 14 18 1019.6 1019.3 0.2
23/12:00am 16.5 13.0 13.3 81 1.8 SE 24 33 13 18 1019.6 1019.3 0.2
 
Date/Time
EDT
Temp
°C
App
Temp
°C
Dew
Point
°C
Rel
Hum
%
Delta-T
°C
Wind Press
QNH
hPa
Press
MSL
hPa
Rain since
9am
mm
Dir  Spd
km/h
Gust
km/h
Spd
kts
Gust
kts
22/11:30pm 16.7 12.9 13.5 81 1.8 SE 26 39 14 21 1019.5 1019.2 0.2
22/11:00pm 17.0 12.1 13.6 80 1.9 SE 32 41 17 22 1019.7 1019.4 0.2
22/10:30pm 16.9 12.2 13.2 79 2.1 SSE 30 35 16 19 1019.4 1019.1 0.2
22/10:00pm 17.3 12.2 13.0 76 2.4 SSE 32 41 17 22 1019.1 1018.8 0.2
22/09:30pm 17.5 12.4 13.6 78 2.2 SE 33 43 18 23 1019.0 1018.7 0.2
22/09:00pm 17.9 13.0 13.7 76 2.4 SSE 32 43 17 23 1018.8 1018.5 0.2
22/08:30pm 18.0 12.9 13.8 76 2.4 SE 33 44 18 24 1018.4 1018.1 0.2
22/08:00pm 18.2 12.3 13.6 74 2.6 SE 37 50 20 27 1017.6 1017.4 0.2
22/07:30pm 18.3 13.5 13.9 75 2.5 SE 32 43 17 23 1017.3 1017.1 0.2
22/07:00pm 19.0 13.7 14.2 73 2.8 SSE 35 44 19 24 1016.9 1016.7 0.2
22/06:30pm 19.5 14.7 14.7 74 2.8 SE 33 41 18 22 1016.6 1016.4 0.2
22/06:00pm 20.3 16.0 14.5 69 3.4 SE 30 37 16 20 1016.5 1016.3 0.2
22/05:30pm 20.1 15.0 14.8 71 3.1 SSE 35 43 19 23 1016.4 1016.2 0.2
22/05:00pm 20.3 15.5 14.7 70 3.3 SSE 33 43 18 23 1016.4 1016.2 0.2
22/04:30pm 20.7 16.2 14.9 69 3.4 SSE 32 41 17 22 1016.3 1016.1 0.2
22/04:00pm 19.6 15.6 15.2 76 2.6 SSE 30 35 16 19 1016.3 1016.1 0.2
22/03:30pm 19.1 15.6 15.4 79 2.2 SSE 28 37 15 20 1016.4 1016.2 0.2
22/03:00pm 19.7 16.0 16.0 79 2.2 SSE 30 37 16 20 1016.3 1016.1 0.2
22/02:30pm 18.9 14.7 16.1 84 1.7 SSE 33 41 18 22 1016.4 1016.2 0.2
22/02:00pm 19.0 15.1 15.4 79 2.1 SSE 30 39 16 21 1016.5 1016.3 0.2
22/01:30pm 19.0 16.0 15.8 82 1.9 SSE 26 33 14 18 1016.4 1016.2 0.2
22/01:18pm 19.0 16.8 16.0 83 1.8 SE 22 30 12 16 1016.6 1016.4 0.2
22/01:00pm 18.8 16.9 15.8 83 1.8 SSE 20 26 11 14 1016.8 1016.6 0.2
22/12:30pm 18.6 15.8 16.3 86 1.4 SE 26 37 14 20 1017.0 1016.8 0.2
22/12:00pm 18.3 15.2 16.6 90 1.0 SSE 28 35 15 19 1017.1 1016.9 0.2
22/11:30am 18.3 15.7 16.8 91 0.9 SSE 26 37 14 20 1017.2 1017.0 0.2
22/11:00am 17.9 14.1 16.6 92 0.8 SSE 32 37 17 20 1017.1 1016.9 0.2
22/10:40am 17.5 15.3 16.8 96 0.4 S 24 32 13 17 1017.0 1016.8 0.2
22/10:30am 17.9 14.9 16.7 93 0.7 SSE 28 39 15 21 1016.9 1016.7 0.2
22/10:17am 17.7 14.9 16.4 92 0.8 SSE 26 37 14 20 1016.8 1016.6 0.2
22/10:00am 17.6 16.2 17.1 97 0.3 S 20 32 11 17 1016.7 1016.5 0.2
22/09:30am 17.4 16.0 16.9 97 0.3 S 20 28 11 15 1016.8 1016.6 0.0
22/09:00am 17.4 15.6 16.9 97 0.3 SSE 22 30 12 16 1016.5 1016.3 4.8
22/08:30am 17.2 15.4 16.9 98 0.2 S 22 32 12 17 1016.0 1015.7 4.6
22/08:00am 17.1 15.2 16.8 98 0.2 S 22 33 12 18 1015.8 1015.5 3.8
22/07:30am 17.1 15.6 16.8 98 0.2 S 20 32 11 17 1015.3 1015.0 3.2
22/07:00am 17.1 14.5 16.9 99 0.1 S 26 33 14 18 1014.7 1014.4 2.4
22/06:30am 17.1 15.2 16.8 98 0.2 SSW 22 33 12 18 1014.2 1013.9 2.2
22/06:00am 17.2 15.8 17.0 99 0.1 SSW 20 30 11 16 1013.8 1013.5 2.0
22/05:30am 17.3 15.5 17.0 98 0.2 SSW 22 28 12 15 1013.7 1013.4 2.0
22/05:00am 17.3 14.8 17.0 98 0.2 SW 26 33 14 18 1013.6 1013.3 2.0
22/04:52am 17.3 15.6 17.1 99 0.1 SW 22 30 12 16 1013.5 1013.2 1.8
22/04:39am 17.6 15.9 17.3 98 0.2 SW 22 32 12 17 1013.4 1013.1 1.8
22/04:30am 17.7 15.7 17.4 98 0.2 WSW 24 30 13 16 1013.3 1013.0 1.8
22/04:18am 17.8 16.6 17.5 98 0.2 WSW 20 28 11 15 1013.3 1013.0 1.8
22/04:00am 18.2 17.4 17.9 98 0.2 WSW 19 26 10 14 1013.0 1012.7 1.8
22/03:30am 18.3 17.3 18.0 98 0.2 W 20 28 11 15 1012.9 1012.6 1.8
22/03:00am 18.7 18.1 18.4 98 0.2 W 19 24 10 13 1012.5 1012.2 1.6
22/02:30am 19.0 18.9 18.7 98 0.2 W 17 22 9 12 1012.2 1011.9 1.6
22/02:00am 19.1 19.0 18.8 98 0.2 WNW 17 22 9 12 1012.2 1011.9 1.6
22/01:49am 19.1 19.0 18.8 98 0.2 W 17 20 9 11 1012.2 1011.9 1.6
22/01:30am 19.1 19.0 18.8 98 0.2 W 17 20 9 11 1012.1 1011.8 1.6
22/01:15am 19.1 19.0 18.8 98 0.2 W 17 20 9 11 1012.0 1011.7 1.6
22/01:00am 19.1 18.9 18.6 97 0.3 W 17 20 9 11 1011.8 1011.5 1.6
22/12:30am 19.2 19.5 18.7 97 0.3 W 15 20 8 11 1011.7 1011.4 1.6
22/12:18am 19.2 19.2 18.9 98 0.2 W 17 20 9 11 1011.7 1011.4 1.6
22/12:00am 19.2 19.6 18.9 98 0.2 WSW 15 17 8 9 1011.6 1011.3 1.6
 
Date/Time
EDT
Temp
°C
App
Temp
°C
Dew
Point
°C
Rel
Hum
%
Delta-T
°C
Wind Press
QNH
hPa
Press
MSL
hPa
Rain since
9am
mm
Dir  Spd
km/h
Gust
km/h
Spd
kts
Gust
kts
21/11:30pm 19.5 19.6 19.2 98 0.2 W 17 20 9 11 1011.7 1011.4 1.6
21/11:00pm 19.7 19.2 19.2 97 0.3 W 20 26 11 14 1011.9 1011.6 1.6
21/10:51pm 19.8 20.0 19.3 97 0.3 W 17 20 9 11 1012.0 1011.7 1.6
21/10:36pm 20.0 19.5 19.2 95 0.5 W 20 26 11 14 1011.9 1011.6 1.6
21/10:30pm 20.0 19.5 19.2 95 0.5 W 20 26 11 14 1011.8 1011.5 1.6
21/10:00pm 19.8 20.1 18.8 94 0.6 W 15 17 8 9 1011.5 1011.2 1.6
21/09:36pm 19.5 19.4 18.7 95 0.5 W 17 22 9 12 1011.3 1011.0 1.6
21/09:30pm - - - - - W 19 26 10 14 - - -
21/09:00pm 19.9 19.8 18.8 93 0.7 W 17 22 9 12 1011.0 1010.7 1.6
21/08:30pm 20.6 21.1 19.3 92 0.8 W 15 19 8 10 1010.5 1010.2 1.6
21/08:00pm 21.5 23.2 20.1 92 0.9 W 11 17 6 9 1010.0 1009.7 1.6
21/07:30pm 21.9 23.2 20.2 90 1.1 W 13 17 7 9 1009.9 1009.6 1.6
21/07:00pm 22.3 24.8 21.1 93 0.8 W 9 11 5 6 1009.6 1009.3 1.6
21/06:30pm 22.6 24.4 21.2 92 0.9 N 13 22 7 12 1009.4 1009.1 1.2
21/06:00pm 22.6 23.2 21.4 93 0.8 N 20 30 11 16 1009.1 1008.9 0.8
21/05:42pm 23.0 22.1 20.7 87 1.5 N 26 33 14 18 1009.6 1009.3 0.6
21/05:30pm 24.1 22.2 20.1 78 2.6 N 30 39 16 21 1009.5 1009.2 0.4
21/05:00pm 25.1 22.9 19.5 71 3.6 NNE 30 37 16 20 1009.0 1008.8 0.4
21/04:30pm 26.3 23.9 19.0 64 4.7 N 30 39 16 21 1009.1 1008.9 0.4
21/04:00pm 26.8 24.4 19.2 63 4.9 N 30 37 16 20 1009.5 1009.2 0.4
21/03:30pm 26.4 24.0 19.1 64 4.7 NNE 30 37 16 20 1009.9 1009.6 0.4
21/03:00pm 26.2 25.5 19.6 67 4.3 NNE 22 33 12 18 1010.0 1009.7 0.4
21/02:30pm 25.7 24.2 19.4 68 4.1 N 26 33 14 18 1010.5 1010.2 0.4
21/02:00pm 26.0 25.2 19.2 66 4.4 NNE 22 30 12 16 1010.8 1010.5 0.2
21/01:30pm 24.6 27.3 20.3 77 2.8 E 6 15 3 8 1011.3 1011.0 0.2
21/01:00pm 23.5 26.1 20.4 83 2.0 NNE 7 11 4 6 1011.9 1011.6 0.2
21/12:30pm 23.5 26.1 20.4 83 2.0 ENE 7 13 4 7 1012.1 1011.8 0.2
21/12:00pm 22.1 24.5 20.1 88 1.3 NNE 7 11 4 6 1012.6 1012.3 0.2
21/11:47am 21.8 24.1 19.9 89 1.2 NNE 7 11 4 6 1012.7 1012.4 0.2
21/11:30am 21.5 23.8 19.8 90 1.1 N 7 9 4 5 1012.9 1012.6 0.2
21/11:00am 20.8 23.0 19.7 93 0.7 NW 7 11 4 6 1013.5 1013.2 0.2
21/10:30am 20.6 22.9 19.5 93 0.7 WNW 6 9 3 5 1013.6 1013.3 0.2
21/10:00am 20.0 21.7 19.4 96 0.4 W 9 11 5 6 1013.5 1013.2 0.2
21/09:30am 19.5 21.6 18.9 96 0.4 WSW 6 7 3 4 1013.5 1013.2 0.2
21/09:00am 19.2 20.6 18.7 97 0.3 W 9 9 5 5 1013.6 1013.3 6.2
21/08:30am 19.0 20.3 18.5 97 0.3 WSW 9 9 5 5 1013.5 1013.2 6.2
21/08:00am 18.8 20.7 18.5 98 0.2 SW 6 7 3 4 1013.6 1013.3 6.2
21/07:30am 18.7 20.4 18.5 99 0.1 SSW 7 9 4 5 1013.2 1012.9 6.2
21/07:00am 18.8 20.0 18.3 97 0.3 S 9 9 5 5 1013.1 1012.8 6.2
21/06:30am 18.9 20.2 18.4 97 0.3 SSE 9 11 5 6 1013.3 1013.0 6.2
21/06:16am 18.8 19.7 18.5 98 0.2 SSE 11 13 6 7 1013.2 1012.9 6.2
21/06:00am 18.7 19.6 18.4 98 0.2 SSE 11 13 6 7 1013.2 1012.9 6.2
21/05:30am 18.7 20.4 18.1 96 0.4 SW 6 7 3 4 1013.1 1012.8 6.0
21/05:00am 18.7 20.8 18.1 96 0.4 SW 4 7 2 4 1013.2 1012.9 5.2
21/04:30am 19.2 22.1 18.2 94 0.6 CALM 0 0 0 0 1013.3 1013.0 3.6
21/04:00am 19.1 21.8 17.8 92 0.8 CALM 0 0 0 0 1013.4 1013.1 3.0
21/03:30am 19.3 21.9 17.5 89 1.1 CALM 0 0 0 0 1013.7 1013.4 2.8
21/03:00am 19.2 21.3 18.1 93 0.7 WSW 4 9 2 5 1013.7 1013.4 2.8
21/02:30am 19.3 21.0 18.0 92 0.8 NW 6 7 3 4 1014.2 1013.9 2.8
21/02:00am 19.3 21.0 18.0 92 0.8 NW 6 7 3 4 1014.7 1014.4 2.8
21/01:30am 19.4 19.7 17.8 90 1.0 N 13 24 7 13 1015.1 1014.8 2.8
21/01:00am 19.3 19.5 17.7 90 1.0 WNW 13 17 7 9 1014.4 1014.1 2.8
21/12:30am 19.4 19.8 17.3 88 1.3 WSW 11 13 6 7 1014.3 1014.0 2.8
21/12:00am 19.7 19.8 17.4 86 1.4 W 13 17 7 9 1014.5 1014.2 2.8
 
Date/Time
EDT
Temp
°C
App
Temp
°C
Dew
Point
°C
Rel
Hum
%
Delta-T
°C
Wind Press
QNH
hPa
Press
MSL
hPa
Rain since
9am
mm
Dir  Spd
km/h
Gust
km/h
Spd
kts
Gust
kts
20/11:30pm 20.0 20.2 17.7 86 1.4 WSW 13 17 7 9 1014.7 1014.4 2.8
20/11:00pm 20.4 20.7 17.8 85 1.6 SW 13 17 7 9 1014.7 1014.4 2.8
20/10:30pm 21.1 21.4 17.9 82 2.0 W 13 17 7 9 1015.1 1014.8 2.8
20/10:00pm 21.5 22.4 18.3 82 2.0 WSW 11 13 6 7 1015.2 1014.9 2.8
20/09:30pm 21.9 23.0 18.1 79 2.4 WSW 9 11 5 6 1015.4 1015.1 2.8
20/09:00pm 22.0 22.8 18.2 79 2.4 WSW 11 13 6 7 1015.3 1015.0 2.8
20/08:30pm 22.3 23.0 18.0 76 2.7 SW 11 15 6 8 1015.0 1014.7 2.8
20/08:00pm 22.5 23.2 17.9 75 2.9 SW 11 15 6 8 1014.9 1014.6 2.8
20/07:30pm 22.7 22.5 17.7 73 3.1 SW 15 19 8 10 1014.4 1014.1 2.8
20/07:00pm 23.5 23.0 17.7 70 3.6 SSW 17 24 9 13 1013.7 1013.4 2.8
20/06:30pm 23.8 22.8 17.9 69 3.7 SSW 20 28 11 15 1013.7 1013.4 2.8
20/06:00pm 23.6 23.4 18.4 72 3.3 SW 17 24 9 13 1013.9 1013.6 2.8
20/05:30pm 23.8 23.2 18.4 72 3.4 SSW 19 26 10 14 1013.9 1013.6 2.8
20/05:00pm 24.7 23.0 18.0 66 4.2 S 24 33 13 18 1013.6 1013.3 2.8
20/04:30pm 27.1 24.5 18.7 60 5.4 SSE 30 37 16 20 1013.6 1013.3 2.8
20/04:00pm 27.3 25.0 19.3 61 5.2 SSE 30 37 16 20 1013.7 1013.4 2.8
20/03:30pm 27.1 26.0 20.3 66 4.5 S 26 33 14 18 1014.0 1013.7 2.8

Other Formats:

Comma delimited format used in spreadsheet applications
http://www.bom.gov.au/fwo/IDV60801/IDV60801.94866.axf

JavaScript Object Notation format (JSON) in row-major order
http://www.bom.gov.au/fwo/IDV60801/IDV60801.94866.json